Time;durP1;ratioP1;P1;durP2;ratioP2;P2;SDS_P1;SDS_P2;PMS_P1;PMS_P2;Temp;Humidity;BMP_temperature;BMP_pressure;BME280_temperature;BME280_humidity;BME280_pressure;Samples;Min_cycle;Max_cycle;Signal;HPM_P1;HPM_P2
2022/01/19 00:01:18;;;;;;;14.70;9.70;;;;;;;;;;5068207;28;20282;-62
2022/01/19 00:03:47;;;;;;;13.40;9.20;;;;;;;;;;5023689;28;20204;-62
2022/01/19 00:06:14;;;;;;;12.37;8.73;;;;;;;;;;5041887;28;20224;-62
2022/01/19 00:08:42;;;;;;;14.97;8.10;;;;;;;;;;5025978;28;20756;-62
2022/01/19 00:11:09;;;;;;;14.57;8.90;;;;;;;;;;5024273;28;20210;-62
2022/01/19 00:13:36;;;;;;;18.83;9.70;;;;;;;;;;5019401;28;20213;-63
2022/01/19 00:16:05;;;;;;;18.33;8.70;;;;;;;;;;5017200;28;20286;-62
2022/01/19 00:18:32;;;;;;;18.43;9.93;;;;;;;;;;5020189;28;20750;-63
2022/01/19 00:21:00;;;;;;;17.50;10.60;;;;;;;;;;5023422;28;20702;-61
2022/01/19 00:23:27;;;;;;;17.93;10.87;;;;;;;;;;5015003;28;20209;-62
2022/01/19 00:25:55;;;;;;;22.40;11.77;;;;;;;;;;5029808;28;20208;-62
2022/01/19 00:28:23;;;;;;;19.23;10.33;;;;;;;;;;5019137;28;20213;-62
2022/01/19 00:30:51;;;;;;;14.10;9.10;;;;;;;;;;5031379;28;20236;-62
2022/01/19 00:33:19;;;;;;;16.77;9.90;;;;;;;;;;5021712;28;20216;-62
2022/01/19 00:35:47;;;;;;;26.53;10.73;;;;;;;;;;5018246;28;20214;-62
2022/01/19 00:38:15;;;;;;;19.03;10.10;;;;;;;;;;5025503;28;20276;-62
2022/01/19 00:40:42;;;;;;;16.63;10.30;;;;;;;;;;5061210;28;20233;-61
2022/01/19 00:43:13;;;;;;;18.17;10.07;;;;;;;;;;5019082;28;20241;-63
2022/01/19 00:45:40;;;;;;;22.53;10.67;;;;;;;;;;5022463;28;20209;-62
2022/01/19 00:48:24;;;;;;;22.73;10.03;;;;;;;;;;5029531;28;20290;-62
2022/01/19 00:50:51;;;;;;;15.70;10.30;;;;;;;;;;5031646;28;20311;-62
2022/01/19 00:53:19;;;;;;;17.00;10.90;;;;;;;;;;5017839;28;20202;-64
2022/01/19 00:55:46;;;;;;;17.83;10.17;;;;;;;;;;5015235;28;20212;-62
2022/01/19 00:58:13;;;;;;;19.10;9.77;;;;;;;;;;5027384;28;20235;-62
2022/01/19 01:00:41;;;;;;;18.53;9.67;;;;;;;;;;5027080;28;20218;-62
2022/01/19 01:03:09;;;;;;;18.57;11.10;;;;;;;;;;5018753;28;20292;-62
2022/01/19 01:05:38;;;;;;;17.50;10.77;;;;;;;;;;5045129;28;20214;-61
2022/01/19 01:08:06;;;;;;;25.83;12.67;;;;;;;;;;5022580;28;20211;-62
2022/01/19 01:10:41;;;;;;;20.87;12.33;;;;;;;;;;5014727;28;20247;-64
2022/01/19 01:13:29;;;;;;;19.77;12.67;;;;;;;;;;5020214;28;20205;-61
2022/01/19 01:18:28;;;;;;;18.50;12.30;;;;;;;;;;5028645;28;20395;-62
2022/01/19 01:20:58;;;;;;;23.17;13.20;;;;;;;;;;5044314;28;20233;-62
2022/01/19 01:23:26;;;;;;;19.97;12.37;;;;;;;;;;5017972;28;20216;-61
2022/01/19 01:25:54;;;;;;;19.37;11.10;;;;;;;;;;5020702;28;24075;-62
2022/01/19 01:28:21;;;;;;;17.33;10.47;;;;;;;;;;5027000;28;20215;-60
2022/01/19 01:30:50;;;;;;;16.77;10.50;;;;;;;;;;5012143;28;20201;-61
2022/01/19 01:33:18;;;;;;;23.20;11.77;;;;;;;;;;5027475;28;20560;-61
2022/01/19 01:35:47;;;;;;;19.93;11.90;;;;;;;;;;5010738;28;20232;-61
2022/01/19 01:38:18;;;;;;;24.97;13.17;;;;;;;;;;5018782;28;20207;-60
2022/01/19 01:41:06;;;;;;;18.43;12.30;;;;;;;;;;5033641;28;20228;-60
2022/01/19 01:43:33;;;;;;;22.33;12.60;;;;;;;;;;5008019;28;20436;-62
2022/01/19 01:46:09;;;;;;;16.40;11.53;;;;;;;;;;5005491;28;20218;-62
2022/01/19 01:48:42;;;;;;;18.13;11.30;;;;;;;;;;5030175;28;20244;-62
2022/01/19 01:53:57;;;;;;;20.77;11.43;;;;;;;;;;5039432;28;20201;-62
2022/01/19 01:56:25;;;;;;;20.93;11.90;;;;;;;;;;5015849;28;20221;-62
2022/01/19 01:58:52;;;;;;;23.63;12.07;;;;;;;;;;5044848;28;20642;-62
2022/01/19 02:01:20;;;;;;;17.27;11.93;;;;;;;;;;5030130;28;20225;-62
2022/01/19 02:03:47;;;;;;;21.63;11.90;;;;;;;;;;5051053;28;20735;-62
2022/01/19 02:09:04;;;;;;;19.80;11.77;;;;;;;;;;5030733;28;20307;-62
2022/01/19 02:22:59;;;;;;;18.93;13.03;;;;;;;;;;5032612;28;20237;-63
2022/01/19 02:25:30;;;;;;;17.60;11.23;;;;;;;;;;5017760;28;20206;-62
2022/01/19 02:31:35;;;;;;;17.97;11.97;;;;;;;;;;5030355;28;20206;-62
2022/01/19 02:41:44;;;;;;;17.83;12.63;;;;;;;;;;5033465;28;20251;-62
2022/01/19 02:44:16;;;;;;;20.63;11.77;;;;;;;;;;5026354;28;20252;-61
2022/01/19 02:49:21;;;;;;;19.93;13.03;;;;;;;;;;5036357;28;20232;-61
2022/01/19 02:51:51;;;;;;;19.43;12.73;;;;;;;;;;5027768;28;20205;-63
2022/01/19 02:54:20;;;;;;;25.43;13.87;;;;;;;;;;5008948;28;20262;-62
2022/01/19 02:56:51;;;;;;;23.67;13.77;;;;;;;;;;5003336;28;20265;-62
2022/01/19 02:59:29;;;;;;;27.00;13.00;;;;;;;;;;5012018;28;20314;-62
2022/01/19 03:10:16;;;;;;;19.40;13.63;;;;;;;;;;5026180;28;20713;-61
2022/01/19 03:12:44;;;;;;;21.80;14.40;;;;;;;;;;5042531;28;20588;-61
2022/01/19 03:15:12;;;;;;;28.20;16.87;;;;;;;;;;5007497;28;20833;-62
2022/01/19 03:17:39;;;;;;;21.87;14.70;;;;;;;;;;5020349;28;20263;-61
2022/01/19 03:20:08;;;;;;;23.07;16.07;;;;;;;;;;5026853;28;20224;-61
2022/01/19 03:22:42;;;;;;;22.80;14.70;;;;;;;;;;5016263;28;20286;-60
2022/01/19 03:25:12;;;;;;;24.70;15.17;;;;;;;;;;5015663;28;20203;-61
2022/01/19 03:27:40;;;;;;;26.83;15.63;;;;;;;;;;5012965;28;20215;-62
2022/01/19 03:30:09;;;;;;;27.67;16.17;;;;;;;;;;5023114;28;20228;-62
2022/01/19 03:32:36;;;;;;;27.90;15.60;;;;;;;;;;5009679;28;20208;-65
2022/01/19 03:35:04;;;;;;;25.63;15.73;;;;;;;;;;5046874;28;20218;-61
2022/01/19 03:37:31;;;;;;;24.37;14.93;;;;;;;;;;5024080;28;20203;-61
2022/01/19 03:39:59;;;;;;;24.87;15.57;;;;;;;;;;5044569;28;20323;-62
2022/01/19 03:42:26;;;;;;;29.60;15.77;;;;;;;;;;5038598;28;20229;-61
2022/01/19 03:44:53;;;;;;;23.57;14.77;;;;;;;;;;5031334;28;20268;-61
2022/01/19 03:47:21;;;;;;;24.40;15.53;;;;;;;;;;5012895;28;20215;-61
2022/01/19 03:49:48;;;;;;;23.23;15.60;;;;;;;;;;5018694;28;20268;-62
2022/01/19 03:52:15;;;;;;;25.60;16.27;;;;;;;;;;5014131;28;20254;-62
2022/01/19 03:54:44;;;;;;;24.40;16.40;;;;;;;;;;5015380;28;20229;-63
2022/01/19 03:57:11;;;;;;;23.20;14.30;;;;;;;;;;5014492;28;20289;-62
2022/01/19 03:59:39;;;;;;;23.93;14.43;;;;;;;;;;5011024;28;20314;-62
2022/01/19 04:02:07;;;;;;;24.17;15.57;;;;;;;;;;5023289;28;20263;-62
2022/01/19 04:07:34;;;;;;;28.27;16.57;;;;;;;;;;5021914;28;20222;-62
2022/01/19 04:10:01;;;;;;;27.73;17.10;;;;;;;;;;5016521;28;20223;-62
2022/01/19 04:12:43;;;;;;;30.80;17.33;;;;;;;;;;5017686;28;20212;-63
2022/01/19 04:15:11;;;;;;;28.30;16.77;;;;;;;;;;5020073;28;20207;-61
2022/01/19 04:17:45;;;;;;;29.53;17.67;;;;;;;;;;5025541;28;20252;-62
2022/01/19 04:20:12;;;;;;;30.73;18.63;;;;;;;;;;5042173;28;20782;-61
2022/01/19 04:22:40;;;;;;;34.83;18.80;;;;;;;;;;5014960;28;20234;-62
2022/01/19 04:25:07;;;;;;;35.60;18.27;;;;;;;;;;5015253;28;20226;-61
2022/01/19 04:27:35;;;;;;;30.10;17.57;;;;;;;;;;5042823;28;20203;-61
2022/01/19 04:30:12;;;;;;;30.80;18.37;;;;;;;;;;5011495;28;20652;-61
2022/01/19 04:32:51;;;;;;;29.70;18.17;;;;;;;;;;5008922;28;20598;-61
2022/01/19 04:35:23;;;;;;;25.60;17.13;;;;;;;;;;5023855;28;20714;-61
2022/01/19 04:49:03;;;;;;;34.80;18.77;;;;;;;;;;5034180;28;20202;-61
2022/01/19 05:05:07;;;;;;;32.37;17.50;;;;;;;;;;5038726;28;20199;-62
2022/01/19 05:15:48;;;;;;;29.30;16.80;;;;;;;;;;5041763;28;20202;-63
2022/01/19 05:18:16;;;;;;;33.40;18.13;;;;;;;;;;5024440;28;20206;-61
2022/01/19 05:20:45;;;;;;;27.13;17.50;;;;;;;;;;5048719;28;20665;-63
2022/01/19 05:23:12;;;;;;;27.97;18.07;;;;;;;;;;5020170;28;20291;-61
2022/01/19 05:25:39;;;;;;;29.43;18.23;;;;;;;;;;5039657;28;20241;-62
2022/01/19 05:28:07;;;;;;;31.53;19.00;;;;;;;;;;5019871;28;20280;-62
2022/01/19 05:30:34;;;;;;;31.53;18.37;;;;;;;;;;5016614;28;20229;-62
2022/01/19 05:33:02;;;;;;;33.53;19.80;;;;;;;;;;5035163;28;20305;-62
2022/01/19 05:35:30;;;;;;;32.50;19.27;;;;;;;;;;5019912;28;20210;-61
2022/01/19 05:37:57;;;;;;;34.47;19.77;;;;;;;;;;5024152;28;20214;-63
2022/01/19 05:40:24;;;;;;;32.67;19.33;;;;;;;;;;5019147;28;20284;-62
2022/01/19 05:42:52;;;;;;;30.83;19.17;;;;;;;;;;5021028;28;20241;-60
2022/01/19 05:45:19;;;;;;;31.17;19.20;;;;;;;;;;5036354;28;20591;-63
2022/01/19 05:47:48;;;;;;;31.00;18.63;;;;;;;;;;5056502;28;20215;-62
2022/01/19 05:50:15;;;;;;;27.53;17.50;;;;;;;;;;5044553;28;20639;-62
2022/01/19 05:52:42;;;;;;;38.53;20.20;;;;;;;;;;5029142;28;20956;-63
2022/01/19 05:55:10;;;;;;;33.57;18.27;;;;;;;;;;5023139;28;20216;-62
2022/01/19 05:57:37;;;;;;;31.03;18.53;;;;;;;;;;5027909;28;20269;-63
2022/01/19 06:00:05;;;;;;;34.97;22.03;;;;;;;;;;5026784;28;20223;-63
2022/01/19 06:02:32;;;;;;;33.53;20.37;;;;;;;;;;5025742;28;20288;-62
2022/01/19 06:05:00;;;;;;;31.20;20.33;;;;;;;;;;5029504;28;20847;-63
2022/01/19 06:07:39;;;;;;;30.63;19.23;;;;;;;;;;5028558;28;20217;-62
2022/01/19 06:10:09;;;;;;;34.60;18.20;;;;;;;;;;5023006;28;20218;-62
2022/01/19 06:12:38;;;;;;;33.33;19.27;;;;;;;;;;5025501;28;20214;-62
2022/01/19 06:15:06;;;;;;;32.60;20.77;;;;;;;;;;5025442;28;20821;-62
2022/01/19 06:17:33;;;;;;;36.40;20.53;;;;;;;;;;5020494;28;20203;-62
2022/01/19 06:20:01;;;;;;;34.93;21.00;;;;;;;;;;5023660;28;20231;-62
2022/01/19 06:22:28;;;;;;;37.50;21.10;;;;;;;;;;5062610;28;20218;-61
2022/01/19 06:24:57;;;;;;;33.77;19.87;;;;;;;;;;5027033;28;20210;-62
2022/01/19 06:27:24;;;;;;;39.63;22.40;;;;;;;;;;5055130;28;20230;-62
2022/01/19 06:29:52;;;;;;;34.33;20.70;;;;;;;;;;5023339;28;20240;-63
2022/01/19 06:32:19;;;;;;;35.20;20.97;;;;;;;;;;5025910;28;20264;-62
2022/01/19 06:34:46;;;;;;;34.03;19.77;;;;;;;;;;5032559;28;20607;-63
2022/01/19 06:37:14;;;;;;;30.80;19.07;;;;;;;;;;5028841;28;20212;-63
2022/01/19 06:39:42;;;;;;;32.10;20.50;;;;;;;;;;5028240;28;20230;-61
2022/01/19 06:42:09;;;;;;;35.83;20.23;;;;;;;;;;5028161;28;20645;-63
2022/01/19 06:44:37;;;;;;;33.73;20.10;;;;;;;;;;5071795;28;20206;-62
2022/01/19 06:47:04;;;;;;;35.97;20.43;;;;;;;;;;5035683;28;20620;-63
2022/01/19 06:49:32;;;;;;;32.03;19.73;;;;;;;;;;5032522;28;20280;-62
2022/01/19 06:52:00;;;;;;;37.67;21.43;;;;;;;;;;5050622;28;20218;-63
2022/01/19 06:54:27;;;;;;;31.37;19.13;;;;;;;;;;5032612;28;20268;-63
2022/01/19 06:56:54;;;;;;;35.00;19.60;;;;;;;;;;5025060;28;20203;-63
2022/01/19 06:59:22;;;;;;;30.43;19.10;;;;;;;;;;5048143;28;20253;-61
2022/01/19 07:01:49;;;;;;;30.60;20.20;;;;;;;;;;5021565;28;20198;-62
2022/01/19 07:04:17;;;;;;;31.47;19.37;;;;;;;;;;5030928;28;20257;-61
2022/01/19 07:06:45;;;;;;;33.40;20.70;;;;;;;;;;5058105;28;20210;-61
2022/01/19 07:09:12;;;;;;;34.77;21.03;;;;;;;;;;5024785;28;20222;-62
2022/01/19 07:11:40;;;;;;;32.10;19.83;;;;;;;;;;5021942;28;20214;-62
2022/01/19 07:14:08;;;;;;;32.00;19.90;;;;;;;;;;5022777;28;20211;-62
2022/01/19 07:16:36;;;;;;;32.23;18.37;;;;;;;;;;5019108;28;20559;-63
2022/01/19 07:19:03;;;;;;;26.03;17.00;;;;;;;;;;5022084;28;20229;-62
2022/01/19 07:21:30;;;;;;;30.33;17.90;;;;;;;;;;5026137;28;20260;-62
2022/01/19 07:23:58;;;;;;;31.13;18.70;;;;;;;;;;5023487;28;20642;-62
2022/01/19 07:26:25;;;;;;;28.93;18.67;;;;;;;;;;5028863;28;20269;-62
2022/01/19 07:28:52;;;;;;;33.77;19.70;;;;;;;;;;5032924;28;20219;-62
2022/01/19 07:31:20;;;;;;;30.03;18.93;;;;;;;;;;5049778;28;20267;-62
2022/01/19 07:33:48;;;;;;;27.50;17.90;;;;;;;;;;5028508;28;20285;-62
2022/01/19 07:36:16;;;;;;;28.13;17.77;;;;;;;;;;5035124;28;23183;-62
2022/01/19 07:38:43;;;;;;;32.20;18.60;;;;;;;;;;5024500;28;20225;-63
2022/01/19 07:41:12;;;;;;;26.60;17.63;;;;;;;;;;5035924;28;20210;-61
2022/01/19 07:43:39;;;;;;;27.83;17.53;;;;;;;;;;5037056;28;20290;-61
2022/01/19 07:46:06;;;;;;;27.50;17.63;;;;;;;;;;5039253;28;20284;-61
2022/01/19 07:48:34;;;;;;;28.30;18.07;;;;;;;;;;5062571;28;20235;-63
2022/01/19 07:51:07;;;;;;;26.60;17.40;;;;;;;;;;5031761;28;21489;-62
2022/01/19 07:53:34;;;;;;;28.37;16.97;;;;;;;;;;5039505;28;20629;-62
2022/01/19 07:56:03;;;;;;;27.07;18.00;;;;;;;;;;5021503;28;20221;-61
2022/01/19 07:58:30;;;;;;;29.30;17.43;;;;;;;;;;5037234;28;20210;-62
2022/01/19 08:00:58;;;;;;;27.77;17.93;;;;;;;;;;5038372;28;20210;-61
2022/01/19 08:03:25;;;;;;;27.43;16.60;;;;;;;;;;5026802;28;20233;-61
2022/01/19 08:05:53;;;;;;;23.70;16.60;;;;;;;;;;5014523;28;20730;-63
2022/01/19 08:08:20;;;;;;;27.67;16.83;;;;;;;;;;5016515;28;22509;-62
2022/01/19 08:10:48;;;;;;;26.93;17.23;;;;;;;;;;5030051;28;20202;-61
2022/01/19 08:13:16;;;;;;;28.57;17.20;;;;;;;;;;5015680;28;20214;-60
2022/01/19 08:15:43;;;;;;;27.17;16.53;;;;;;;;;;5019947;28;20205;-61
2022/01/19 08:18:10;;;;;;;26.33;16.13;;;;;;;;;;5022199;28;20227;-61
2022/01/19 08:20:42;;;;;;;26.50;15.97;;;;;;;;;;5042674;28;20234;-62
2022/01/19 08:23:10;;;;;;;23.73;16.30;;;;;;;;;;5044048;28;20623;-64
2022/01/19 08:25:38;;;;;;;26.80;16.07;;;;;;;;;;5036296;28;20252;-63
2022/01/19 08:28:05;;;;;;;23.93;16.77;;;;;;;;;;5046734;28;20214;-63
2022/01/19 08:30:33;;;;;;;24.57;16.30;;;;;;;;;;5034075;28;20223;-62
2022/01/19 08:33:00;;;;;;;25.77;15.90;;;;;;;;;;5035648;28;20651;-62
2022/01/19 08:35:28;;;;;;;30.47;17.23;;;;;;;;;;5030024;28;20411;-62
2022/01/19 08:37:55;;;;;;;26.77;16.60;;;;;;;;;;5037435;28;20201;-62
2022/01/19 08:40:28;;;;;;;22.73;16.03;;;;;;;;;;5031749;28;20804;-62
2022/01/19 08:42:55;;;;;;;23.23;15.53;;;;;;;;;;5034225;28;20233;-62
2022/01/19 08:45:23;;;;;;;22.03;15.33;;;;;;;;;;5053175;28;20211;-62
2022/01/19 08:47:51;;;;;;;25.80;15.83;;;;;;;;;;5033781;28;20274;-62
2022/01/19 08:50:19;;;;;;;27.93;16.07;;;;;;;;;;5067260;28;20228;-62
2022/01/19 08:52:47;;;;;;;21.87;14.90;;;;;;;;;;5023776;28;20295;-62
2022/01/19 08:55:15;;;;;;;23.50;15.83;;;;;;;;;;5041217;28;20204;-62
2022/01/19 08:57:45;;;;;;;26.23;15.50;;;;;;;;;;5025561;28;20607;-61
2022/01/19 09:00:14;;;;;;;19.97;14.07;;;;;;;;;;5017738;28;23292;-61
2022/01/19 09:02:41;;;;;;;22.70;14.17;;;;;;;;;;5024193;28;20332;-61
2022/01/19 09:05:09;;;;;;;20.10;14.77;;;;;;;;;;5026207;28;20204;-61
2022/01/19 09:07:37;;;;;;;19.50;13.67;;;;;;;;;;5021888;28;20290;-62
2022/01/19 09:10:05;;;;;;;20.77;13.67;;;;;;;;;;5031231;28;20284;-61
2022/01/19 09:12:33;;;;;;;24.17;14.47;;;;;;;;;;5041071;28;20253;-61
2022/01/19 09:15:00;;;;;;;19.03;13.07;;;;;;;;;;5028308;28;20240;-62
2022/01/19 09:17:28;;;;;;;24.13;14.00;;;;;;;;;;5025240;28;20218;-62
2022/01/19 09:19:56;;;;;;;21.03;13.77;;;;;;;;;;5032842;28;20362;-62
2022/01/19 09:22:23;;;;;;;20.37;13.80;;;;;;;;;;5031883;28;20728;-61
2022/01/19 09:24:51;;;;;;;22.40;14.77;;;;;;;;;;5021451;28;20217;-61
2022/01/19 09:27:18;;;;;;;18.60;13.90;;;;;;;;;;5057887;28;20256;-61
2022/01/19 09:29:46;;;;;;;22.30;13.77;;;;;;;;;;5021848;28;20236;-61
2022/01/19 09:32:21;;;;;;;16.90;13.87;;;;;;;;;;5041364;28;20208;-61
2022/01/19 09:34:54;;;;;;;18.70;12.73;;;;;;;;;;5025230;28;20217;-61
2022/01/19 09:37:22;;;;;;;19.23;13.73;;;;;;;;;;5065442;28;20206;-62
2022/01/19 09:39:50;;;;;;;18.37;12.90;;;;;;;;;;5025336;28;20236;-61
2022/01/19 09:42:17;;;;;;;18.57;12.97;;;;;;;;;;5025448;28;20242;-61
2022/01/19 09:44:45;;;;;;;15.30;12.37;;;;;;;;;;5023099;28;20704;-62
2022/01/19 09:47:12;;;;;;;18.17;13.10;;;;;;;;;;5027042;28;20210;-60
2022/01/19 09:49:40;;;;;;;14.93;11.47;;;;;;;;;;5034831;28;20283;-61
2022/01/19 09:52:07;;;;;;;18.07;12.20;;;;;;;;;;5027700;28;20208;-61
2022/01/19 09:54:35;;;;;;;17.90;12.33;;;;;;;;;;5023905;28;20293;-63
2022/01/19 09:57:03;;;;;;;15.80;11.03;;;;;;;;;;5020210;28;20264;-60
2022/01/19 09:59:34;;;;;;;14.33;10.67;;;;;;;;;;5025544;28;20288;-61
2022/01/19 10:02:06;;;;;;;18.17;10.73;;;;;;;;;;5055753;28;20207;-61
2022/01/19 10:04:36;;;;;;;14.47;11.63;;;;;;;;;;5026311;28;20230;-62
2022/01/19 10:07:20;;;;;;;15.47;10.97;;;;;;;;;;5028116;28;20214;-63
2022/01/19 10:09:53;;;;;;;15.57;10.83;;;;;;;;;;5059661;28;20952;-61
2022/01/19 10:18:08;;;;;;;25.50;13.90;;;;;;;;;;5031447;28;20334;-63
2022/01/19 10:20:36;;;;;;;20.90;11.63;;;;;;;;;;5021995;28;20232;-61
2022/01/19 10:23:04;;;;;;;8.93;7.80;;;;;;;;;;5038773;28;20291;-61
2022/01/19 10:25:51;;;;;;;13.43;8.30;;;;;;;;;;5027773;28;20210;-61
2022/01/19 10:28:18;;;;;;;11.00;8.13;;;;;;;;;;5022847;28;20667;-61
2022/01/19 10:30:46;;;;;;;9.67;7.73;;;;;;;;;;5021130;28;20198;-61
2022/01/19 10:33:17;;;;;;;9.43;7.87;;;;;;;;;;5043907;28;20230;-61
2022/01/19 10:35:47;;;;;;;10.10;7.67;;;;;;;;;;5026011;28;20225;-61
2022/01/19 10:38:17;;;;;;;12.00;8.27;;;;;;;;;;5036232;28;20900;-61
2022/01/19 10:41:03;;;;;;;11.47;8.13;;;;;;;;;;5026578;28;20252;-61
2022/01/19 10:43:48;;;;;;;7.83;6.67;;;;;;;;;;5021213;28;20218;-63
2022/01/19 10:46:34;;;;;;;9.27;7.00;;;;;;;;;;5027059;28;20389;-63
2022/01/19 10:49:06;;;;;;;8.57;7.20;;;;;;;;;;5024298;28;20316;-61
2022/01/19 10:51:40;;;;;;;7.30;6.47;;;;;;;;;;5024508;28;20198;-61
2022/01/19 10:54:09;;;;;;;8.73;7.83;;;;;;;;;;5031209;28;20202;-62
2022/01/19 10:56:41;;;;;;;8.90;7.60;;;;;;;;;;5038815;28;20202;-61
2022/01/19 10:59:11;;;;;;;7.07;6.40;;;;;;;;;;5053603;28;20245;-61
2022/01/19 11:02:10;;;;;;;7.63;6.50;;;;;;;;;;5052374;28;20820;-63
2022/01/19 11:04:38;;;;;;;8.17;7.37;;;;;;;;;;5018217;28;20229;-61
2022/01/19 11:07:07;;;;;;;8.43;7.13;;;;;;;;;;5024437;28;20795;-61
2022/01/19 11:09:43;;;;;;;7.57;6.70;;;;;;;;;;5031454;28;20221;-61
2022/01/19 11:12:14;;;;;;;10.17;6.93;;;;;;;;;;5044000;28;20201;-61
2022/01/19 11:14:41;;;;;;;7.70;6.90;;;;;;;;;;5019843;28;20242;-61
2022/01/19 11:17:29;;;;;;;9.07;7.13;;;;;;;;;;5023720;28;20243;-61
2022/01/19 11:19:56;;;;;;;7.23;6.47;;;;;;;;;;5038679;28;21124;-61
2022/01/19 11:22:36;;;;;;;8.60;6.60;;;;;;;;;;5024583;28;20284;-61
2022/01/19 11:25:03;;;;;;;7.20;6.00;;;;;;;;;;5047988;28;20229;-61
2022/01/19 11:27:39;;;;;;;9.13;6.70;;;;;;;;;;5018687;28;20244;-61
2022/01/19 11:30:12;;;;;;;7.20;6.13;;;;;;;;;;5019994;28;20221;-61
2022/01/19 11:32:40;;;;;;;7.33;6.20;;;;;;;;;;5020521;28;20210;-63
2022/01/19 11:35:07;;;;;;;9.87;6.43;;;;;;;;;;5036097;28;20207;-61
2022/01/19 11:37:37;;;;;;;8.57;6.83;;;;;;;;;;5053474;28;20209;-63
2022/01/19 11:40:09;;;;;;;11.60;6.87;;;;;;;;;;5060244;28;20235;-61
2022/01/19 11:42:37;;;;;;;8.93;7.50;;;;;;;;;;5060301;28;20579;-62
2022/01/19 11:45:06;;;;;;;10.27;7.27;;;;;;;;;;5070607;28;20282;-61
2022/01/19 11:47:33;;;;;;;8.37;6.80;;;;;;;;;;5065304;28;20210;-62
2022/01/19 11:50:08;;;;;;;8.23;6.20;;;;;;;;;;5068187;28;20221;-61
2022/01/19 11:52:40;;;;;;;9.23;6.70;;;;;;;;;;5036393;28;20295;-62
2022/01/19 11:55:13;;;;;;;6.60;5.73;;;;;;;;;;5022257;28;20202;-61
2022/01/19 11:57:42;;;;;;;8.13;6.33;;;;;;;;;;5042708;28;20523;-62
2022/01/19 12:00:21;;;;;;;8.67;5.77;;;;;;;;;;5048580;28;23889;-61
2022/01/19 12:02:49;;;;;;;6.60;5.40;;;;;;;;;;5018218;28;20926;-62
2022/01/19 12:05:39;;;;;;;6.57;5.77;;;;;;;;;;5042123;28;20233;-62
2022/01/19 12:08:22;;;;;;;7.33;6.17;;;;;;;;;;5027570;28;20674;-61
2022/01/19 12:10:54;;;;;;;8.33;6.90;;;;;;;;;;5037468;28;20209;-63
2022/01/19 12:13:55;;;;;;;9.17;6.30;;;;;;;;;;5031500;28;20317;-61
2022/01/19 12:19:07;;;;;;;7.43;6.17;;;;;;;;;;5044016;28;20225;-61
2022/01/19 12:21:35;;;;;;;7.70;6.47;;;;;;;;;;5028721;28;20201;-61
2022/01/19 12:24:22;;;;;;;9.93;5.90;;;;;;;;;;5026259;28;20233;-63
2022/01/19 12:26:53;;;;;;;8.80;6.23;;;;;;;;;;5059519;28;20292;-63
2022/01/19 12:29:36;;;;;;;6.70;5.60;;;;;;;;;;5031035;28;20280;-61
2022/01/19 12:32:04;;;;;;;8.77;6.00;;;;;;;;;;5025013;28;20605;-62
2022/01/19 12:34:40;;;;;;;7.40;6.60;;;;;;;;;;5055877;28;20203;-62
2022/01/19 12:37:08;;;;;;;8.43;6.23;;;;;;;;;;5057680;28;20215;-60
2022/01/19 12:39:40;;;;;;;7.33;6.60;;;;;;;;;;5021849;28;20299;-63
2022/01/19 12:42:13;;;;;;;7.57;6.17;;;;;;;;;;5039197;28;20255;-61
2022/01/19 12:44:47;;;;;;;9.13;6.27;;;;;;;;;;5051830;28;20670;-61
2022/01/19 12:47:27;;;;;;;9.00;6.23;;;;;;;;;;5039863;28;20230;-62
2022/01/19 12:49:59;;;;;;;7.13;6.13;;;;;;;;;;5027091;28;20244;-61
2022/01/19 12:52:30;;;;;;;6.97;6.13;;;;;;;;;;5053311;28;20206;-61
2022/01/19 12:55:00;;;;;;;6.87;6.13;;;;;;;;;;5020145;28;20602;-62
2022/01/19 12:57:29;;;;;;;9.37;6.80;;;;;;;;;;5055386;28;21240;-63
2022/01/19 12:59:57;;;;;;;7.70;6.20;;;;;;;;;;5038743;28;20243;-61
2022/01/19 13:02:28;;;;;;;8.53;6.27;;;;;;;;;;5022117;28;20213;-61
2022/01/19 13:05:04;;;;;;;5.87;5.27;;;;;;;;;;5025089;28;20652;-63
2022/01/19 13:07:34;;;;;;;6.80;5.23;;;;;;;;;;5050137;28;20225;-60
2022/01/19 13:10:23;;;;;;;7.23;5.57;;;;;;;;;;5016427;28;20280;-61
2022/01/19 13:15:39;;;;;;;6.90;5.37;;;;;;;;;;5042475;28;20267;-63
2022/01/19 13:18:07;;;;;;;11.37;6.57;;;;;;;;;;5041543;28;20210;-61
2022/01/19 13:20:34;;;;;;;9.37;6.40;;;;;;;;;;5024758;28;21078;-61
2022/01/19 13:23:04;;;;;;;9.03;6.43;;;;;;;;;;5054354;28;20303;-61
2022/01/19 13:25:33;;;;;;;10.47;7.07;;;;;;;;;;5031070;28;20225;-62
2022/01/19 13:28:02;;;;;;;11.97;7.77;;;;;;;;;;5032941;28;20242;-61
2022/01/19 13:30:33;;;;;;;12.50;8.07;;;;;;;;;;5033463;28;20226;-63
2022/01/19 13:33:11;;;;;;;11.60;9.63;;;;;;;;;;5035145;28;20574;-61
2022/01/19 13:35:44;;;;;;;10.17;7.53;;;;;;;;;;5033503;28;20218;-61
2022/01/19 13:38:13;;;;;;;10.20;8.33;;;;;;;;;;5039684;28;20206;-62
2022/01/19 13:40:40;;;;;;;14.50;10.30;;;;;;;;;;5055017;28;20241;-62
2022/01/19 13:43:11;;;;;;;14.30;10.40;;;;;;;;;;5020754;28;20275;-63
2022/01/19 13:50:42;;;;;;;13.10;9.70;;;;;;;;;;5036727;28;20234;-62
2022/01/19 13:53:10;;;;;;;12.87;8.93;;;;;;;;;;5033362;28;20206;-61
2022/01/19 13:55:38;;;;;;;11.97;9.43;;;;;;;;;;5022173;28;20214;-61
2022/01/19 13:58:16;;;;;;;12.63;9.30;;;;;;;;;;5017716;28;20677;-62
2022/01/19 14:00:54;;;;;;;11.90;9.43;;;;;;;;;;5018628;28;20673;-62
2022/01/19 14:03:23;;;;;;;14.93;9.93;;;;;;;;;;5016539;28;20211;-63
2022/01/19 14:05:55;;;;;;;14.33;11.43;;;;;;;;;;5025700;28;20222;-61
2022/01/19 14:08:31;;;;;;;18.13;12.63;;;;;;;;;;5023808;28;20201;-63
2022/01/19 14:10:59;;;;;;;18.73;11.90;;;;;;;;;;5038535;28;20194;-60
2022/01/19 14:13:30;;;;;;;16.70;10.90;;;;;;;;;;5022976;28;20225;-62
2022/01/19 14:15:58;;;;;;;13.20;9.90;;;;;;;;;;5029578;28;20198;-63
2022/01/19 14:18:26;;;;;;;16.23;10.10;;;;;;;;;;5058099;28;20714;-62
2022/01/19 14:21:12;;;;;;;13.40;9.77;;;;;;;;;;5053554;28;20198;-62
2022/01/19 14:23:57;;;;;;;13.73;10.40;;;;;;;;;;5035735;28;20256;-62
2022/01/19 14:26:26;;;;;;;15.27;10.13;;;;;;;;;;5045995;28;20202;-61
2022/01/19 14:29:12;;;;;;;16.00;11.20;;;;;;;;;;5025285;28;20217;-61
2022/01/19 14:31:54;;;;;;;13.97;9.87;;;;;;;;;;5015347;28;20210;-63
2022/01/19 14:34:39;;;;;;;15.53;10.80;;;;;;;;;;5033259;28;20243;-61
2022/01/19 14:37:09;;;;;;;15.03;10.00;;;;;;;;;;5040285;28;20264;-61
2022/01/19 14:39:47;;;;;;;16.90;11.17;;;;;;;;;;5035584;28;20226;-61
2022/01/19 14:42:18;;;;;;;14.20;10.00;;;;;;;;;;5042114;28;20210;-62
2022/01/19 14:44:58;;;;;;;16.77;10.13;;;;;;;;;;5025885;28;20229;-60
2022/01/19 14:47:37;;;;;;;17.93;11.27;;;;;;;;;;5017376;28;20213;-61
2022/01/19 14:50:22;;;;;;;15.70;10.20;;;;;;;;;;5050361;28;20217;-60
2022/01/19 14:52:50;;;;;;;15.83;9.70;;;;;;;;;;5039814;28;20315;-61
2022/01/19 14:55:19;;;;;;;14.13;10.13;;;;;;;;;;5034041;28;20210;-61
2022/01/19 14:57:49;;;;;;;14.17;10.23;;;;;;;;;;5020675;28;20205;-61
2022/01/19 15:00:17;;;;;;;14.97;10.20;;;;;;;;;;5021627;28;20241;-61
2022/01/19 15:02:49;;;;;;;14.60;9.93;;;;;;;;;;5038301;28;20300;-63
2022/01/19 15:05:18;;;;;;;14.17;9.03;;;;;;;;;;5017382;28;20313;-62
2022/01/19 15:07:47;;;;;;;17.00;9.90;;;;;;;;;;5021435;28;20217;-62
2022/01/19 15:10:14;;;;;;;18.07;12.33;;;;;;;;;;5059964;28;20234;-62
2022/01/19 15:12:42;;;;;;;23.30;15.10;;;;;;;;;;5019161;28;20210;-63
2022/01/19 15:15:10;;;;;;;19.47;13.27;;;;;;;;;;5014623;28;20326;-63
2022/01/19 15:17:38;;;;;;;21.00;13.23;;;;;;;;;;5028868;28;20210;-61
2022/01/19 15:20:06;;;;;;;17.40;11.17;;;;;;;;;;5056338;28;20229;-62
2022/01/19 15:22:34;;;;;;;18.53;13.00;;;;;;;;;;5059309;28;20577;-61
2022/01/19 15:25:02;;;;;;;15.70;10.50;;;;;;;;;;5058545;28;20234;-61
2022/01/19 15:27:29;;;;;;;16.37;10.80;;;;;;;;;;5050653;28;20601;-60
2022/01/19 15:29:57;;;;;;;21.17;13.20;;;;;;;;;;5016537;28;20221;-60
2022/01/19 15:32:24;;;;;;;19.37;13.10;;;;;;;;;;5015942;28;20553;-61
2022/01/19 15:34:51;;;;;;;20.00;13.00;;;;;;;;;;5054743;28;20259;-62
2022/01/19 15:37:19;;;;;;;16.50;11.10;;;;;;;;;;5029949;28;20215;-61
2022/01/19 15:39:49;;;;;;;16.97;11.23;;;;;;;;;;5034052;28;20695;-62
2022/01/19 15:42:17;;;;;;;18.57;11.63;;;;;;;;;;5042428;28;20210;-61
2022/01/19 15:44:45;;;;;;;19.40;12.10;;;;;;;;;;5026140;28;20284;-63
2022/01/19 15:47:14;;;;;;;14.57;10.07;;;;;;;;;;5064513;28;20779;-62
2022/01/19 15:49:42;;;;;;;19.10;11.87;;;;;;;;;;5063048;28;20214;-63
2022/01/19 15:52:10;;;;;;;19.53;12.40;;;;;;;;;;5038439;28;20595;-61
2022/01/19 15:54:38;;;;;;;19.50;10.63;;;;;;;;;;5011921;28;20629;-61
2022/01/19 15:57:06;;;;;;;20.30;12.03;;;;;;;;;;5021832;28;20326;-62
2022/01/19 15:59:33;;;;;;;21.20;12.97;;;;;;;;;;5034386;28;20222;-62
2022/01/19 16:02:01;;;;;;;19.77;12.20;;;;;;;;;;5012212;28;20299;-61
2022/01/19 16:04:29;;;;;;;18.73;13.67;;;;;;;;;;5026672;28;20233;-62
2022/01/19 16:06:57;;;;;;;16.13;11.63;;;;;;;;;;5050483;28;20222;-62
2022/01/19 16:09:24;;;;;;;16.83;10.53;;;;;;;;;;5040113;28;20234;-60
2022/01/19 16:11:53;;;;;;;16.37;11.33;;;;;;;;;;5021264;28;20207;-62
2022/01/19 16:14:21;;;;;;;16.97;10.13;;;;;;;;;;5025836;28;20217;-62